sensor_id;sensor_type;location;lat;lon;timestamp;pressure;altitude;pressure_sealevel;temperature;humidity
50672;BME280;46021;55.882;37.654;2023-03-16T00:01:09;99137.66;;;1.83;75.76
50672;BME280;46021;55.882;37.654;2023-03-16T00:03:36;99144.50;;;1.82;76.09
50672;BME280;46021;55.882;37.654;2023-03-16T00:06:06;99143.63;;;1.86;75.81
50672;BME280;46021;55.882;37.654;2023-03-16T00:08:33;99135.13;;;1.78;76.15
50672;BME280;46021;55.882;37.654;2023-03-16T00:11:02;99141.94;;;1.85;76.39
50672;BME280;46021;55.882;37.654;2023-03-16T00:13:29;99116.25;;;1.79;75.81
50672;BME280;46021;55.882;37.654;2023-03-16T00:15:57;99106.81;;;1.84;75.25
50672;BME280;46021;55.882;37.654;2023-03-16T00:18:27;99119.66;;;1.87;75.71
50672;BME280;46021;55.882;37.654;2023-03-16T00:20:55;99113.63;;;1.87;75.64
50672;BME280;46021;55.882;37.654;2023-03-16T00:23:25;99126.53;;;1.85;74.97
50672;BME280;46021;55.882;37.654;2023-03-16T00:25:53;99120.50;;;1.85;75.33
50672;BME280;46021;55.882;37.654;2023-03-16T00:28:20;99112.78;;;1.86;75.33
50672;BME280;46021;55.882;37.654;2023-03-16T00:30:47;99112.78;;;1.83;75.23
50672;BME280;46021;55.882;37.654;2023-03-16T00:33:15;99117.09;;;1.84;75.41
50672;BME280;46021;55.882;37.654;2023-03-16T00:35:45;99108.53;;;1.81;75.30
50672;BME280;46021;55.882;37.654;2023-03-16T00:38:15;99111.09;;;1.85;75.33
50672;BME280;46021;55.882;37.654;2023-03-16T00:40:43;99103.41;;;1.84;75.80
50672;BME280;46021;55.882;37.654;2023-03-16T00:43:10;99105.13;;;1.79;75.75
50672;BME280;46021;55.882;37.654;2023-03-16T00:45:38;99105.97;;;1.79;75.93
50672;BME280;46021;55.882;37.654;2023-03-16T00:48:09;99108.53;;;1.78;75.71
50672;BME280;46021;55.882;37.654;2023-03-16T00:50:37;99114.56;;;1.78;75.60
50672;BME280;46021;55.882;37.654;2023-03-16T00:53:04;99120.59;;;1.72;75.89
50672;BME280;46021;55.882;37.654;2023-03-16T00:55:31;99112.88;;;1.71;76.43
50672;BME280;46021;55.882;37.654;2023-03-16T00:58:00;99118.91;;;1.68;76.78
50672;BME280;46021;55.882;37.654;2023-03-16T01:00:29;99126.59;;;1.67;76.76
50672;BME280;46021;55.882;37.654;2023-03-16T01:02:57;99115.50;;;1.60;76.68
50672;BME280;46021;55.882;37.654;2023-03-16T01:05:24;99127.50;;;1.63;76.31
50672;BME280;46021;55.882;37.654;2023-03-16T01:07:51;99124.03;;;1.61;76.95
50672;BME280;46021;55.882;37.654;2023-03-16T01:10:18;99127.50;;;1.61;76.48
50672;BME280;46021;55.882;37.654;2023-03-16T01:12:45;99117.22;;;1.56;77.47
50672;BME280;46021;55.882;37.654;2023-03-16T01:15:14;99127.50;;;1.58;76.57
50672;BME280;46021;55.882;37.654;2023-03-16T01:17:41;99124.06;;;1.58;77.38
50672;BME280;46021;55.882;37.654;2023-03-16T01:20:10;99118.09;;;1.55;77.08
50672;BME280;46021;55.882;37.654;2023-03-16T01:22:39;99122.34;;;1.58;77.43
50672;BME280;46021;55.882;37.654;2023-03-16T01:25:09;99123.22;;;1.52;77.08
50672;BME280;46021;55.882;37.654;2023-03-16T01:27:36;99122.38;;;1.49;77.72
50672;BME280;46021;55.882;37.654;2023-03-16T01:30:04;99106.97;;;1.47;76.98
50672;BME280;46021;55.882;37.654;2023-03-16T01:32:33;99124.13;;;1.51;77.62
50672;BME280;46021;55.882;37.654;2023-03-16T01:35:00;99131.81;;;1.50;77.85
50672;BME280;46021;55.882;37.654;2023-03-16T01:37:28;99130.97;;;1.45;78.10
50672;BME280;46021;55.882;37.654;2023-03-16T01:39:59;99129.28;;;1.44;77.91
50672;BME280;46021;55.882;37.654;2023-03-16T01:42:26;99129.28;;;1.41;77.77
50672;BME280;46021;55.882;37.654;2023-03-16T01:44:58;99134.41;;;1.41;77.65
50672;BME280;46021;55.882;37.654;2023-03-16T01:47:34;99129.28;;;1.38;77.26
50672;BME280;46021;55.882;37.654;2023-03-16T01:50:06;99136.97;;;1.36;77.27
50672;BME280;46021;55.882;37.654;2023-03-16T01:52:37;99132.69;;;1.40;77.33
50672;BME280;46021;55.882;37.654;2023-03-16T01:55:06;99119.84;;;1.41;77.68
50672;BME280;46021;55.882;37.654;2023-03-16T01:57:36;99119.84;;;1.44;77.64
50672;BME280;46021;55.882;37.654;2023-03-16T02:00:11;99127.56;;;1.46;77.20
50672;BME280;46021;55.882;37.654;2023-03-16T02:02:57;99113.03;;;1.34;77.61
50672;BME280;46021;55.882;37.654;2023-03-16T02:05:40;99126.72;;;1.39;77.87
50672;BME280;46021;55.882;37.654;2023-03-16T02:08:13;99122.44;;;1.43;78.16
50672;BME280;46021;55.882;37.654;2023-03-16T02:10:40;99126.69;;;1.45;77.50
50672;BME280;46021;55.882;37.654;2023-03-16T02:13:10;99130.97;;;1.48;77.71
50672;BME280;46021;55.882;37.654;2023-03-16T02:15:37;99130.97;;;1.46;78.07
50672;BME280;46021;55.882;37.654;2023-03-16T02:18:06;99129.25;;;1.48;77.75
50672;BME280;46021;55.882;37.654;2023-03-16T02:20:39;99125.84;;;1.49;77.26
50672;BME280;46021;55.882;37.654;2023-03-16T02:23:11;99129.25;;;1.50;77.59
50672;BME280;46021;55.882;37.654;2023-03-16T02:25:50;99138.69;;;1.49;77.42
50672;BME280;46021;55.882;37.654;2023-03-16T02:28:25;99137.81;;;1.52;77.17
50672;BME280;46021;55.882;37.654;2023-03-16T02:30:57;99140.38;;;1.50;76.99
50672;BME280;46021;55.882;37.654;2023-03-16T02:33:25;99138.66;;;1.51;77.86
50672;BME280;46021;55.882;37.654;2023-03-16T02:35:52;99130.09;;;1.52;77.17
50672;BME280;46021;55.882;37.654;2023-03-16T02:38:21;99133.50;;;1.55;77.04
50672;BME280;46021;55.882;37.654;2023-03-16T02:40:57;99128.38;;;1.52;77.43
50672;BME280;46021;55.882;37.654;2023-03-16T02:43:27;99120.66;;;1.52;76.95
50672;BME280;46021;55.882;37.654;2023-03-16T02:46:22;99121.50;;;1.53;77.55
50672;BME280;46021;55.882;37.654;2023-03-16T02:48:57;99122.38;;;1.50;77.30
50672;BME280;46021;55.882;37.654;2023-03-16T02:51:27;99127.53;;;1.52;77.08
50672;BME280;46021;55.882;37.654;2023-03-16T02:53:55;99121.50;;;1.56;76.93
50672;BME280;46021;55.882;37.654;2023-03-16T02:56:23;99114.66;;;1.56;77.56
50672;BME280;46021;55.882;37.654;2023-03-16T02:58:51;99119.78;;;1.63;77.50
50672;BME280;46021;55.882;37.654;2023-03-16T03:01:21;99114.59;;;1.66;77.72
50672;BME280;46021;55.882;37.654;2023-03-16T03:03:48;99115.50;;;1.65;76.99
50672;BME280;46021;55.882;37.654;2023-03-16T03:06:15;99118.06;;;1.63;76.96
50672;BME280;46021;55.882;37.654;2023-03-16T03:08:42;99111.19;;;1.61;76.29
50672;BME280;46021;55.882;37.654;2023-03-16T03:11:09;99114.66;;;1.63;76.81
50672;BME280;46021;55.882;37.654;2023-03-16T03:13:36;99111.19;;;1.64;77.05
50672;BME280;46021;55.882;37.654;2023-03-16T03:16:05;99118.06;;;1.62;76.76
50672;BME280;46021;55.882;37.654;2023-03-16T03:18:33;99120.63;;;1.63;77.23
50672;BME280;46021;55.882;37.654;2023-03-16T03:21:01;99112.91;;;1.62;77.60
50672;BME280;46021;55.882;37.654;2023-03-16T03:23:28;99110.34;;;1.62;77.52
50672;BME280;46021;55.882;37.654;2023-03-16T03:25:56;99106.06;;;1.64;77.16
50672;BME280;46021;55.882;37.654;2023-03-16T03:28:24;99095.78;;;1.61;76.86
50672;BME280;46021;55.882;37.654;2023-03-16T03:30:51;99091.47;;;1.67;76.79
50672;BME280;46021;55.882;37.654;2023-03-16T03:33:19;99092.31;;;1.68;77.06
50672;BME280;46021;55.882;37.654;2023-03-16T03:35:52;99089.75;;;1.68;77.06
50672;BME280;46021;55.882;37.654;2023-03-16T03:38:19;99097.47;;;1.71;76.76
50672;BME280;46021;55.882;37.654;2023-03-16T03:40:48;99105.16;;;1.72;77.08
50672;BME280;46021;55.882;37.654;2023-03-16T03:43:15;99095.75;;;1.70;76.91
50672;BME280;46021;55.882;37.654;2023-03-16T03:45:44;99091.47;;;1.66;76.71
50672;BME280;46021;55.882;37.654;2023-03-16T03:48:12;99087.19;;;1.68;76.36
50672;BME280;46021;55.882;37.654;2023-03-16T03:50:39;99080.38;;;1.68;77.12
50672;BME280;46021;55.882;37.654;2023-03-16T03:53:29;99080.38;;;1.67;77.11
50672;BME280;46021;55.882;37.654;2023-03-16T03:56:12;99076.06;;;1.67;77.14
50672;BME280;46021;55.882;37.654;2023-03-16T03:58:40;99075.22;;;1.65;76.81
50672;BME280;46021;55.882;37.654;2023-03-16T04:01:08;99087.25;;;1.59;76.77
50672;BME280;46021;55.882;37.654;2023-03-16T04:03:35;99091.53;;;1.60;77.06
50672;BME280;46021;55.882;37.654;2023-03-16T04:06:03;99084.69;;;1.55;76.78
50672;BME280;46021;55.882;37.654;2023-03-16T04:08:33;99094.09;;;1.60;76.63
50672;BME280;46021;55.882;37.654;2023-03-16T04:11:02;99095.78;;;1.62;77.49
50672;BME280;46021;55.882;37.654;2023-03-16T04:13:29;99094.94;;;1.63;76.86
50672;BME280;46021;55.882;37.654;2023-03-16T04:15:57;99095.78;;;1.64;77.28
50672;BME280;46021;55.882;37.654;2023-03-16T04:18:27;99100.91;;;1.61;77.00
50672;BME280;46021;55.882;37.654;2023-03-16T04:20:55;99106.06;;;1.61;77.10
50672;BME280;46021;55.882;37.654;2023-03-16T04:23:23;99095.81;;;1.59;76.75
50672;BME280;46021;55.882;37.654;2023-03-16T04:25:52;99080.41;;;1.58;77.29
50672;BME280;46021;55.882;37.654;2023-03-16T04:28:21;99086.41;;;1.56;77.41
50672;BME280;46021;55.882;37.654;2023-03-16T04:30:51;99092.41;;;1.57;76.90
50672;BME280;46021;55.882;37.654;2023-03-16T04:33:28;99089.00;;;1.53;76.89
50672;BME280;46021;55.882;37.654;2023-03-16T04:35:57;99091.56;;;1.47;77.29
50672;BME280;46021;55.882;37.654;2023-03-16T04:38:24;99095.84;;;1.48;77.67
50672;BME280;46021;55.882;37.654;2023-03-16T04:40:59;99085.63;;;1.42;77.48
50672;BME280;46021;55.882;37.654;2023-03-16T04:43:32;99106.13;;;1.45;77.52
50672;BME280;46021;55.882;37.654;2023-03-16T04:46:05;99103.59;;;1.44;77.37
50672;BME280;46021;55.882;37.654;2023-03-16T04:48:33;99103.59;;;1.44;77.27
50672;BME280;46021;55.882;37.654;2023-03-16T04:51:04;99102.75;;;1.39;77.35
50672;BME280;46021;55.882;37.654;2023-03-16T04:53:34;99098.47;;;1.41;77.65
50672;BME280;46021;55.882;37.654;2023-03-16T04:56:10;99104.44;;;1.41;77.83
50672;BME280;46021;55.882;37.654;2023-03-16T04:58:43;99120.69;;;1.45;78.40
50672;BME280;46021;55.882;37.654;2023-03-16T05:01:11;99128.41;;;1.46;79.25
50672;BME280;46021;55.882;37.654;2023-03-16T05:03:39;99124.97;;;1.47;77.90
50672;BME280;46021;55.882;37.654;2023-03-16T05:06:06;99114.72;;;1.41;78.48
50672;BME280;46021;55.882;37.654;2023-03-16T05:08:35;99120.75;;;1.31;78.49
50672;BME280;46021;55.882;37.654;2023-03-16T05:11:02;99130.16;;;1.35;77.94
50672;BME280;46021;55.882;37.654;2023-03-16T05:13:36;99141.28;;;1.35;78.09
50672;BME280;46021;55.882;37.654;2023-03-16T05:16:04;99128.44;;;1.35;78.18
50672;BME280;46021;55.882;37.654;2023-03-16T05:18:36;99128.44;;;1.37;79.09
50672;BME280;46021;55.882;37.654;2023-03-16T05:21:03;99136.97;;;1.36;78.65
50672;BME280;46021;55.882;37.654;2023-03-16T05:23:41;99135.25;;;1.43;78.12
50672;BME280;46021;55.882;37.654;2023-03-16T05:26:09;99126.72;;;1.39;78.27
50672;BME280;46021;55.882;37.654;2023-03-16T05:28:39;99135.25;;;1.41;78.05
50672;BME280;46021;55.882;37.654;2023-03-16T05:31:10;99130.16;;;1.35;79.08
50672;BME280;46021;55.882;37.654;2023-03-16T05:33:42;99154.97;;;1.38;79.13
50672;BME280;46021;55.882;37.654;2023-03-16T05:36:14;99149.81;;;1.36;78.16
50672;BME280;46021;55.882;37.654;2023-03-16T05:38:44;99138.72;;;1.31;78.50
50672;BME280;46021;55.882;37.654;2023-03-16T05:41:19;99145.56;;;1.32;79.52
50672;BME280;46021;55.882;37.654;2023-03-16T05:44:11;99141.31;;;1.32;78.84
50672;BME280;46021;55.882;37.654;2023-03-16T05:46:53;99142.13;;;1.39;78.59
50672;BME280;46021;55.882;37.654;2023-03-16T05:49:20;99127.56;;;1.41;78.57
50672;BME280;46021;55.882;37.654;2023-03-16T05:51:48;99123.31;;;1.40;79.00
50672;BME280;46021;55.882;37.654;2023-03-16T05:54:15;99136.94;;;1.51;78.48
50672;BME280;46021;55.882;37.654;2023-03-16T05:56:45;99130.09;;;1.50;78.17
50672;BME280;46021;55.882;37.654;2023-03-16T05:59:14;99138.66;;;1.51;78.06
50672;BME280;46021;55.882;37.654;2023-03-16T06:01:45;99150.63;;;1.49;78.80
50672;BME280;46021;55.882;37.654;2023-03-16T06:04:14;99154.94;;;1.45;78.18
50672;BME280;46021;55.882;37.654;2023-03-16T06:06:41;99153.25;;;1.40;78.42
50672;BME280;46021;55.882;37.654;2023-03-16T06:09:15;99148.97;;;1.37;78.82
50672;BME280;46021;55.882;37.654;2023-03-16T06:11:42;99148.13;;;1.38;79.24
50672;BME280;46021;55.882;37.654;2023-03-16T06:14:12;99124.16;;;1.38;79.42
50672;BME280;46021;55.882;37.654;2023-03-16T06:16:41;99128.41;;;1.46;78.78
50672;BME280;46021;55.882;37.654;2023-03-16T06:19:09;99132.63;;;1.58;78.42
50672;BME280;46021;55.882;37.654;2023-03-16T06:21:36;99134.31;;;1.68;79.24
50672;BME280;46021;55.882;37.654;2023-03-16T06:24:08;99141.16;;;1.71;78.85
50672;BME280;46021;55.882;37.654;2023-03-16T06:26:35;99142.03;;;1.68;78.07
50672;BME280;46021;55.882;37.654;2023-03-16T06:29:05;99154.84;;;1.73;78.22
50672;BME280;46021;55.882;37.654;2023-03-16T06:31:35;99153.09;;;1.72;78.07
50672;BME280;46021;55.882;37.654;2023-03-16T06:34:03;99159.97;;;1.70;78.29
50672;BME280;46021;55.882;37.654;2023-03-16T06:36:31;99160.84;;;1.69;78.46
50672;BME280;46021;55.882;37.654;2023-03-16T06:39:01;99165.16;;;1.65;77.26
50672;BME280;46021;55.882;37.654;2023-03-16T06:41:40;99163.41;;;1.66;78.04
50672;BME280;46021;55.882;37.654;2023-03-16T06:44:10;99160.88;;;1.61;78.21
50672;BME280;46021;55.882;37.654;2023-03-16T06:46:48;99178.00;;;1.61;78.40
50672;BME280;46021;55.882;37.654;2023-03-16T06:49:17;99177.16;;;1.63;78.91
50672;BME280;46021;55.882;37.654;2023-03-16T06:51:44;99175.41;;;1.65;78.50
50672;BME280;46021;55.882;37.654;2023-03-16T06:54:11;99178.00;;;1.61;78.37
50672;BME280;46021;55.882;37.654;2023-03-16T06:56:39;99175.41;;;1.65;79.13
50672;BME280;46021;55.882;37.654;2023-03-16T06:59:06;99162.53;;;1.70;78.34
50672;BME280;46021;55.882;37.654;2023-03-16T07:01:35;99166.81;;;1.77;79.03
50672;BME280;46021;55.882;37.654;2023-03-16T07:04:02;99160.78;;;1.84;79.07
50672;BME280;46021;55.882;37.654;2023-03-16T07:06:33;99168.44;;;1.92;78.69
50672;BME280;46021;55.882;37.654;2023-03-16T07:09:00;99167.56;;;1.98;78.53
50672;BME280;46021;55.882;37.654;2023-03-16T07:11:29;99164.94;;;2.02;78.59
50672;BME280;46021;55.882;37.654;2023-03-16T07:13:57;99177.78;;;2.07;78.40
50672;BME280;46021;55.882;37.654;2023-03-16T07:16:25;99182.06;;;2.09;77.83
50672;BME280;46021;55.882;37.654;2023-03-16T07:18:53;99168.31;;;2.13;78.17
50672;BME280;46021;55.882;37.654;2023-03-16T07:21:20;99159.81;;;2.04;78.61
50672;BME280;46021;55.882;37.654;2023-03-16T07:23:49;99155.53;;;2.04;78.72
50672;BME280;46021;55.882;37.654;2023-03-16T07:26:21;99164.03;;;2.14;78.90
50672;BME280;46021;55.882;37.654;2023-03-16T07:28:52;99172.53;;;2.25;78.54
50672;BME280;46021;55.882;37.654;2023-03-16T07:31:20;99172.50;;;2.34;78.83
50672;BME280;46021;55.882;37.654;2023-03-16T07:33:47;99172.44;;;2.38;77.67
50672;BME280;46021;55.882;37.654;2023-03-16T07:36:23;99163.88;;;2.39;77.52
50672;BME280;46021;55.882;37.654;2023-03-16T07:38:56;99158.69;;;2.42;78.11
50672;BME280;46021;55.882;37.654;2023-03-16T07:41:23;99162.09;;;2.48;77.55
50672;BME280;46021;55.882;37.654;2023-03-16T07:43:51;99162.88;;;2.55;77.23
50672;BME280;46021;55.882;37.654;2023-03-16T07:46:22;99164.59;;;2.59;77.49
50672;BME280;46021;55.882;37.654;2023-03-16T07:48:49;99156.81;;;2.62;77.64
50672;BME280;46021;55.882;37.654;2023-03-16T07:51:16;99161.13;;;2.60;77.93
50672;BME280;46021;55.882;37.654;2023-03-16T07:53:47;99168.78;;;2.69;77.52
50672;BME280;46021;55.882;37.654;2023-03-16T07:56:20;99161.06;;;2.72;77.50
50672;BME280;46021;55.882;37.654;2023-03-16T07:58:51;99157.63;;;2.70;77.43
50672;BME280;46021;55.882;37.654;2023-03-16T08:01:18;99143.88;;;2.73;76.96
50672;BME280;46021;55.882;37.654;2023-03-16T08:03:47;99142.97;;;2.80;77.14
50672;BME280;46021;55.882;37.654;2023-03-16T08:06:14;99150.56;;;2.92;77.58
50672;BME280;46021;55.882;37.654;2023-03-16T08:08:41;99152.38;;;2.81;76.92
50672;BME280;46021;55.882;37.654;2023-03-16T08:11:20;99154.88;;;2.89;76.88
50672;BME280;46021;55.882;37.654;2023-03-16T08:13:54;99156.53;;;2.95;76.97
50672;BME280;46021;55.882;37.654;2023-03-16T08:16:24;99157.28;;;3.07;77.25
50672;BME280;46021;55.882;37.654;2023-03-16T08:18:54;99154.69;;;3.10;76.76
50672;BME280;46021;55.882;37.654;2023-03-16T08:21:22;99158.94;;;3.16;76.67
50672;BME280;46021;55.882;37.654;2023-03-16T08:23:49;99161.41;;;3.24;76.22
50672;BME280;46021;55.882;37.654;2023-03-16T08:26:19;99158.84;;;3.24;76.58
50672;BME280;46021;55.882;37.654;2023-03-16T08:28:51;99164.84;;;3.23;75.98
50672;BME280;46021;55.882;37.654;2023-03-16T08:31:19;99168.31;;;3.22;76.88
50672;BME280;46021;55.882;37.654;2023-03-16T08:33:58;99159.84;;;3.10;76.09
50672;BME280;46021;55.882;37.654;2023-03-16T08:36:27;99160.69;;;3.11;76.27
50672;BME280;46021;55.882;37.654;2023-03-16T08:38:57;99150.47;;;3.02;76.14
50672;BME280;46021;55.882;37.654;2023-03-16T08:41:27;99157.31;;;3.04;76.35
50672;BME280;46021;55.882;37.654;2023-03-16T08:43:57;99151.34;;;3.01;76.05
50672;BME280;46021;55.882;37.654;2023-03-16T08:46:24;99162.41;;;3.10;76.75
50672;BME280;46021;55.882;37.654;2023-03-16T08:48:56;99156.38;;;3.13;76.80
50672;BME280;46021;55.882;37.654;2023-03-16T08:51:24;99165.81;;;3.12;76.37
50672;BME280;46021;55.882;37.654;2023-03-16T08:53:52;99158.09;;;3.12;76.46
50672;BME280;46021;55.882;37.654;2023-03-16T08:56:19;99169.25;;;3.15;75.91
50672;BME280;46021;55.882;37.654;2023-03-16T08:58:47;99155.53;;;3.12;76.46
50672;BME280;46021;55.882;37.654;2023-03-16T09:01:16;99160.63;;;3.17;76.74
50672;BME280;46021;55.882;37.654;2023-03-16T09:03:44;99158.00;;;3.22;76.73
50672;BME280;46021;55.882;37.654;2023-03-16T09:06:13;99162.28;;;3.23;76.43
50672;BME280;46021;55.882;37.654;2023-03-16T09:08:41;99167.41;;;3.24;76.63
50672;BME280;46021;55.882;37.654;2023-03-16T09:11:11;99166.66;;;3.15;76.30
50672;BME280;46021;55.882;37.654;2023-03-16T09:13:40;99171.81;;;3.15;76.61
50672;BME280;46021;55.882;37.654;2023-03-16T09:16:10;99178.81;;;3.00;75.88
50672;BME280;46021;55.882;37.654;2023-03-16T09:18:38;99173.84;;;2.79;76.28
50672;BME280;46021;55.882;37.654;2023-03-16T09:21:08;99173.03;;;2.77;77.22
50672;BME280;46021;55.882;37.654;2023-03-16T09:23:38;99162.75;;;2.72;76.54
50672;BME280;46021;55.882;37.654;2023-03-16T09:26:06;99172.13;;;2.81;77.67
50672;BME280;46021;55.882;37.654;2023-03-16T09:28:34;99165.25;;;2.80;77.15
50672;BME280;46021;55.882;37.654;2023-03-16T09:31:04;99166.06;;;2.86;77.47
50672;BME280;46021;55.882;37.654;2023-03-16T09:33:33;99169.47;;;2.90;76.90
50672;BME280;46021;55.882;37.654;2023-03-16T09:36:02;99170.28;;;2.95;76.49
50672;BME280;46021;55.882;37.654;2023-03-16T09:38:29;99164.25;;;2.99;76.46
50672;BME280;46021;55.882;37.654;2023-03-16T09:40:59;99168.47;;;3.06;77.13
50672;BME280;46021;55.882;37.654;2023-03-16T09:43:42;99164.19;;;3.04;76.84
50672;BME280;46021;55.882;37.654;2023-03-16T09:46:14;99173.63;;;3.03;76.49
50672;BME280;46021;55.882;37.654;2023-03-16T09:48:44;99163.41;;;2.97;76.05
50672;BME280;46021;55.882;37.654;2023-03-16T09:51:17;99175.41;;;2.98;76.82
50672;BME280;46021;55.882;37.654;2023-03-16T09:53:48;99166.88;;;2.93;76.97
50672;BME280;46021;55.882;37.654;2023-03-16T09:56:20;99170.31;;;2.89;76.42
50672;BME280;46021;55.882;37.654;2023-03-16T09:58:49;99160.06;;;2.86;76.33
50672;BME280;46021;55.882;37.654;2023-03-16T10:01:28;99158.34;;;2.85;76.74
50672;BME280;46021;55.882;37.654;2023-03-16T10:04:09;99160.03;;;2.89;77.80
50672;BME280;46021;55.882;37.654;2023-03-16T10:06:45;99160.84;;;2.94;76.97
50672;BME280;46021;55.882;37.654;2023-03-16T10:09:25;99160.84;;;2.97;76.81
50672;BME280;46021;55.882;37.654;2023-03-16T10:11:57;99167.56;;;3.12;77.99
50672;BME280;46021;55.882;37.654;2023-03-16T10:14:30;99161.44;;;3.21;76.89
50672;BME280;46021;55.882;37.654;2023-03-16T10:17:01;99169.06;;;3.30;77.30
50672;BME280;46021;55.882;37.654;2023-03-16T10:19:36;99176.78;;;3.33;76.43
50672;BME280;46021;55.882;37.654;2023-03-16T10:22:15;99175.00;;;3.38;76.23
50672;BME280;46021;55.882;37.654;2023-03-16T10:24:53;99174.91;;;3.46;76.35
50672;BME280;46021;55.882;37.654;2023-03-16T10:27:27;99180.94;;;3.45;76.35
50672;BME280;46021;55.882;37.654;2023-03-16T10:29:54;99178.47;;;3.34;75.56
50672;BME280;46021;55.882;37.654;2023-03-16T10:32:22;99171.66;;;3.27;76.72
50672;BME280;46021;55.882;37.654;2023-03-16T10:34:58;99177.69;;;3.27;76.52
50672;BME280;46021;55.882;37.654;2023-03-16T10:37:29;99174.25;;;3.28;77.06
50672;BME280;46021;55.882;37.654;2023-03-16T10:39:57;99180.13;;;3.38;77.40
50672;BME280;46021;55.882;37.654;2023-03-16T10:42:25;99174.09;;;3.42;76.86
50672;BME280;46021;55.882;37.654;2023-03-16T10:44:57;99174.06;;;3.45;76.21
50672;BME280;46021;55.882;37.654;2023-03-16T10:47:28;99176.53;;;3.55;76.12
50672;BME280;46021;55.882;37.654;2023-03-16T10:49:58;99185.91;;;3.60;75.92
50672;BME280;46021;55.882;37.654;2023-03-16T10:52:32;99183.31;;;3.62;75.47
50672;BME280;46021;55.882;37.654;2023-03-16T10:55:05;99176.53;;;3.55;75.30
50672;BME280;46021;55.882;37.654;2023-03-16T10:57:34;99182.59;;;3.50;76.32
50672;BME280;46021;55.882;37.654;2023-03-16T11:00:06;99186.84;;;3.51;75.64
50672;BME280;46021;55.882;37.654;2023-03-16T11:02:37;99180.00;;;3.54;76.34
50672;BME280;46021;55.882;37.654;2023-03-16T11:05:26;99171.34;;;3.58;76.38
50672;BME280;46021;55.882;37.654;2023-03-16T11:07:59;99178.19;;;3.59;75.72
50672;BME280;46021;55.882;37.654;2023-03-16T11:10:31;99179.91;;;3.60;75.57
50672;BME280;46021;55.882;37.654;2023-03-16T11:13:07;99181.69;;;3.56;75.77
50672;BME280;46021;55.882;37.654;2023-03-16T11:15:39;99179.13;;;3.51;76.46
50672;BME280;46021;55.882;37.654;2023-03-16T11:18:19;99177.44;;;3.52;76.26
50672;BME280;46021;55.882;37.654;2023-03-16T11:20:51;99183.44;;;3.53;76.27
50672;BME280;46021;55.882;37.654;2023-03-16T11:23:24;99183.50;;;3.48;75.88
50672;BME280;46021;55.882;37.654;2023-03-16T11:25:55;99181.97;;;3.27;75.63
50672;BME280;46021;55.882;37.654;2023-03-16T11:28:33;99184.53;;;3.30;75.54
50672;BME280;46021;55.882;37.654;2023-03-16T11:31:10;99183.69;;;3.28;75.62
50672;BME280;46021;55.882;37.654;2023-03-16T11:33:39;99178.56;;;3.25;74.91
50672;BME280;46021;55.882;37.654;2023-03-16T11:36:20;99185.50;;;3.20;75.17
50672;BME280;46021;55.882;37.654;2023-03-16T11:38:57;99182.13;;;3.15;76.25
50672;BME280;46021;55.882;37.654;2023-03-16T11:41:38;99186.34;;;3.19;75.69
50672;BME280;46021;55.882;37.654;2023-03-16T11:44:15;99184.63;;;3.19;76.39
50672;BME280;46021;55.882;37.654;2023-03-16T11:46:54;99200.09;;;3.19;75.46
50672;BME280;46021;55.882;37.654;2023-03-16T11:49:43;99200.09;;;3.19;76.13
50672;BME280;46021;55.882;37.654;2023-03-16T11:52:21;99206.13;;;3.17;75.40
50672;BME280;46021;55.882;37.654;2023-03-16T11:55:00;99212.19;;;3.14;75.89
50672;BME280;46021;55.882;37.654;2023-03-16T11:57:41;99202.75;;;3.10;75.58
50672;BME280;46021;55.882;37.654;2023-03-16T12:00:22;99217.34;;;3.11;75.58
50672;BME280;46021;55.882;37.654;2023-03-16T12:03:10;99201.94;;;3.06;76.88
50672;BME280;46021;55.882;37.654;2023-03-16T12:05:54;99217.34;;;3.09;75.75
50672;BME280;46021;55.882;37.654;2023-03-16T12:08:43;99208.00;;;2.99;76.93
50672;BME280;46021;55.882;37.654;2023-03-16T12:11:17;99218.31;;;2.99;76.66
50672;BME280;46021;55.882;37.654;2023-03-16T12:13:58;99218.31;;;2.96;77.13
50672;BME280;46021;55.882;37.654;2023-03-16T12:16:33;99225.22;;;2.94;76.10
50672;BME280;46021;55.882;37.654;2023-03-16T12:19:03;99220.06;;;2.92;76.53
50672;BME280;46021;55.882;37.654;2023-03-16T12:21:35;99223.53;;;2.93;77.25
50672;BME280;46021;55.882;37.654;2023-03-16T12:24:05;99221.78;;;2.92;77.23
50672;BME280;46021;55.882;37.654;2023-03-16T12:26:39;99201.25;;;2.86;77.37
50672;BME280;46021;55.882;37.654;2023-03-16T12:29:23;99221.81;;;2.89;76.85
50672;BME280;46021;55.882;37.654;2023-03-16T12:31:57;99212.47;;;2.82;77.15
50672;BME280;46021;55.882;37.654;2023-03-16T12:34:31;99211.63;;;2.77;76.55
50672;BME280;46021;55.882;37.654;2023-03-16T12:37:11;99216.78;;;2.73;76.73
50672;BME280;46021;55.882;37.654;2023-03-16T12:39:49;99221.09;;;2.71;76.67
50672;BME280;46021;55.882;37.654;2023-03-16T12:42:31;99230.56;;;2.69;76.47
50672;BME280;46021;55.882;37.654;2023-03-16T12:45:02;99234.91;;;2.57;76.67
50672;BME280;46021;55.882;37.654;2023-03-16T12:47:36;99227.25;;;2.49;77.24
50672;BME280;46021;55.882;37.654;2023-03-16T12:50:10;99241.84;;;2.44;77.09
50672;BME280;46021;55.882;37.654;2023-03-16T12:52:39;99238.47;;;2.39;77.46
50672;BME280;46021;55.882;37.654;2023-03-16T12:55:13;99235.13;;;2.24;77.65
50672;BME280;46021;55.882;37.654;2023-03-16T12:57:42;99246.25;;;2.26;77.97
50672;BME280;46021;55.882;37.654;2023-03-16T13:00:11;99243.69;;;2.26;77.95
50672;BME280;46021;55.882;37.654;2023-03-16T13:02:43;99254.75;;;2.41;78.14
50672;BME280;46021;55.882;37.654;2023-03-16T13:05:12;99242.72;;;2.46;77.70
50672;BME280;46021;55.882;37.654;2023-03-16T13:07:46;99254.66;;;2.53;78.12
50672;BME280;46021;55.882;37.654;2023-03-16T13:10:16;99254.66;;;2.56;78.38
50672;BME280;46021;55.882;37.654;2023-03-16T13:12:45;99252.06;;;2.59;78.05
50672;BME280;46021;55.882;37.654;2023-03-16T13:15:26;99250.34;;;2.58;78.09
50672;BME280;46021;55.882;37.654;2023-03-16T13:18:18;99257.22;;;2.59;77.41
50672;BME280;46021;55.882;37.654;2023-03-16T13:20:53;99258.06;;;2.58;78.08